createdAt,value
2022-12-22T00:03:01.063Z,100104.44
2022-12-22T00:06:22.474Z,100102.25
2022-12-22T00:09:43.895Z,100097.88
2022-12-22T00:13:05.121Z,100098.28
2022-12-22T00:16:27.652Z,100114.56
2022-12-22T00:19:49.706Z,100108.00
2022-12-22T00:23:10.968Z,100092.13
2022-12-22T00:26:31.930Z,100105.44
2022-12-22T00:29:58.928Z,100093.47
2022-12-22T00:33:21.699Z,100092.03
2022-12-22T00:36:44.600Z,100092.44
2022-12-22T00:40:05.629Z,100106.25
2022-12-22T00:43:26.933Z,100092.28
2022-12-22T00:46:50.309Z,100086.31
2022-12-22T00:50:12.292Z,100080.13
2022-12-22T00:53:34.563Z,100076.81
2022-12-22T00:56:55.660Z,100080.47
2022-12-22T01:00:17.190Z,100074.81
2022-12-22T01:03:38.252Z,100067.78
2022-12-22T01:06:59.775Z,100061.84
2022-12-22T01:10:22.586Z,100067.47
2022-12-22T01:13:46.728Z,100065.66
2022-12-22T01:17:07.784Z,100057.94
2022-12-22T01:20:30.865Z,100056.69
2022-12-22T01:23:52.024Z,100054.13
2022-12-22T01:27:14.896Z,100059.28
2022-12-22T01:30:35.718Z,100055.78
2022-12-22T01:33:57.296Z,100039.94
2022-12-22T01:37:18.518Z,100035.50
2022-12-22T01:40:42.175Z,100030.91
2022-12-22T01:44:04.737Z,100023.28
2022-12-22T01:47:50.588Z,100020.97
2022-12-22T01:51:14.297Z,100012.97
2022-12-22T01:54:35.858Z,100011.94
2022-12-22T01:57:56.828Z,100002.72
2022-12-22T02:01:20.336Z,100005.31
2022-12-22T02:04:45.392Z,99989.72
2022-12-22T02:08:21.562Z,99996.53
2022-12-22T02:11:51.552Z,99991.13
2022-12-22T02:15:23.113Z,99984.78
2022-12-22T02:18:50.864Z,99978.56
2022-12-22T02:22:22.993Z,99976.00
2022-12-22T02:25:49.353Z,99972.97
2022-12-22T02:29:12.490Z,99967.97
2022-12-22T02:32:33.863Z,99970.66
2022-12-22T02:36:08.169Z,99966.53
2022-12-22T02:39:39.321Z,99959.41
2022-12-22T02:43:09.206Z,99943.94
2022-12-22T02:46:40.508Z,99931.56
2022-12-22T02:50:12.057Z,99940.97
2022-12-22T02:53:34.846Z,99926.97
2022-12-22T02:56:56.121Z,99927.91
2022-12-22T03:00:17.369Z,99931.41
2022-12-22T03:03:40.054Z,99923.06
2022-12-22T03:07:01.138Z,99919.00
2022-12-22T03:10:23.399Z,99912.84
2022-12-22T03:13:45.523Z,99913.31
2022-12-22T03:17:06.721Z,99913.13
2022-12-22T03:20:29.472Z,99910.44
2022-12-22T03:23:50.146Z,99917.84
2022-12-22T03:26:54.306Z,99908.53
2022-12-22T03:29:59.063Z,99905.75
2022-12-22T03:33:11.735Z,99900.06
2022-12-22T03:36:16.533Z,99886.00
2022-12-22T03:39:25.571Z,99883.97
2022-12-22T03:42:43.148Z,99875.50
2022-12-22T03:46:04.351Z,99883.06
2022-12-22T03:49:13.956Z,99881.22
2022-12-22T03:52:18.814Z,99873.47
2022-12-22T03:55:22.218Z,99877.91
2022-12-22T03:58:25.980Z,99874.50
2022-12-22T04:01:29.490Z,99869.63
2022-12-22T04:04:33.365Z,99860.94
2022-12-22T04:07:38.592Z,99853.84
2022-12-22T04:11:01.498Z,99849.50
2022-12-22T04:14:05.116Z,99841.66
2022-12-22T04:17:09.739Z,99839.78
2022-12-22T04:20:13.567Z,99835.28
2022-12-22T04:23:17.890Z,99834.34
2022-12-22T04:26:22.537Z,99833.91
2022-12-22T04:29:25.527Z,99831.75
2022-12-22T04:32:28.571Z,99839.31
2022-12-22T04:35:31.554Z,99827.84
2022-12-22T04:38:36.564Z,99830.81
2022-12-22T04:41:39.554Z,99810.38
2022-12-22T04:44:42.565Z,99820.84
2022-12-22T04:47:45.599Z,99813.81
2022-12-22T04:50:51.823Z,99806.59
2022-12-22T04:53:56.149Z,99805.69
2022-12-22T04:56:59.139Z,99797.75
2022-12-22T05:00:02.520Z,99790.31
2022-12-22T05:03:05.693Z,99787.34
2022-12-22T05:06:09.812Z,99778.59
2022-12-22T05:09:14.620Z,99778.59
2022-12-22T05:12:35.761Z,99779.22
2022-12-22T05:15:39.100Z,99780.13
2022-12-22T05:18:46.145Z,99774.06
2022-12-22T05:21:49.186Z,99770.44
2022-12-22T05:24:53.496Z,99770.72
2022-12-22T05:27:56.509Z,99768.66
2022-12-22T05:31:05.329Z,99760.38
2022-12-22T05:34:08.414Z,99763.09
2022-12-22T05:37:11.421Z,99751.81
2022-12-22T05:40:15.805Z,99743.16
2022-12-22T05:43:19.109Z,99737.66
2022-12-22T05:46:22.583Z,99739.94
2022-12-22T05:49:25.968Z,99731.47
2022-12-22T05:52:29.956Z,99732.41
2022-12-22T05:55:35.145Z,99727.44
2022-12-22T05:58:40.001Z,99728.13
2022-12-22T06:01:43.234Z,99721.94
2022-12-22T06:04:46.330Z,99707.06
2022-12-22T06:07:49.380Z,99716.66
2022-12-22T06:10:55.871Z,99711.81
2022-12-22T06:13:58.827Z,99698.06
2022-12-22T06:17:02.220Z,99702.53
2022-12-22T06:20:07.251Z,99695.47
2022-12-22T06:23:10.289Z,99701.38
2022-12-22T06:26:14.641Z,99693.72
2022-12-22T06:29:17.805Z,99696.41
2022-12-22T06:32:20.970Z,99691.97
2022-12-22T06:35:24.131Z,99684.13
2022-12-22T06:38:28.362Z,99686.41
2022-12-22T06:41:50.729Z,99683.06
2022-12-22T06:44:55.012Z,99675.63
2022-12-22T06:47:58.211Z,99679.63
2022-12-22T06:51:02.025Z,99670.03
2022-12-22T06:54:05.670Z,99676.75
2022-12-22T06:57:10.120Z,99665.13
2022-12-22T07:00:14.608Z,99665.13
2022-12-22T07:03:17.804Z,99664.44
2022-12-22T07:06:21.378Z,99667.72
2022-12-22T07:09:24.492Z,99679.00
2022-12-22T07:12:28.901Z,99676.22
2022-12-22T07:15:31.862Z,99677.63
2022-12-22T07:18:37.157Z,99667.03
2022-12-22T07:21:42.809Z,99657.38
2022-12-22T07:24:45.931Z,99650.13
2022-12-22T07:27:50.277Z,99644.88
2022-12-22T07:30:55.359Z,99644.31
2022-12-22T07:33:58.439Z,99645.97
2022-12-22T07:37:01.673Z,99639.84
2022-12-22T07:40:05.411Z,99639.97
2022-12-22T07:43:12.753Z,99647.63
2022-12-22T07:46:15.767Z,99630.84
2022-12-22T07:49:47.625Z,99630.25
2022-12-22T07:52:50.744Z,99639.53
2022-12-22T07:55:53.727Z,99624.03
2022-12-22T07:59:39.816Z,99624.63
2022-12-22T08:02:46.541Z,99610.66
2022-12-22T08:05:50.605Z,99622.56
2022-12-22T08:08:58.177Z,99618.19
2022-12-22T08:12:01.684Z,99613.72
2022-12-22T08:15:09.841Z,99612.69
2022-12-22T08:18:13.726Z,99606.78
2022-12-22T08:21:17.261Z,99601.41
2022-12-22T08:24:20.287Z,99600.59
2022-12-22T08:27:29.012Z,99598.72
2022-12-22T08:30:34.522Z,99592.50
2022-12-22T08:33:38.200Z,99588.97
2022-12-22T08:36:46.078Z,99593.31
2022-12-22T08:39:57.297Z,99587.09
2022-12-22T08:43:05.286Z,99584.38
2022-12-22T08:46:09.790Z,99578.16
2022-12-22T08:49:12.952Z,99577.34
2022-12-22T08:52:18.781Z,99574.44
2022-12-22T08:55:22.227Z,99574.53
2022-12-22T08:58:25.436Z,99575.94
2022-12-22T09:01:29.941Z,99569.00
2022-12-22T09:04:34.677Z,99561.97
2022-12-22T09:07:37.699Z,99557.38
2022-12-22T09:10:44.209Z,99558.94
2022-12-22T09:13:47.401Z,99559.63
2022-12-22T09:16:52.116Z,99544.81
2022-12-22T09:19:55.186Z,99547.19
2022-12-22T09:22:58.231Z,99547.78
2022-12-22T09:26:01.248Z,99538.25
2022-12-22T09:29:05.291Z,99542.50
2022-12-22T09:32:09.742Z,99533.78
2022-12-22T09:35:12.809Z,99536.16
2022-12-22T09:38:15.792Z,99531.19
2022-12-22T09:41:21.606Z,99535.28
2022-12-22T09:44:28.600Z,99534.03
2022-12-22T09:47:37.906Z,99524.50
2022-12-22T09:50:42.968Z,99522.63
2022-12-22T09:53:51.605Z,99513.78
2022-12-22T09:56:54.670Z,99511.44
2022-12-22T09:59:59.287Z,99513.78
2022-12-22T10:03:14.317Z,99507.44
2022-12-22T10:06:21.665Z,99505.56
2022-12-22T10:09:48.708Z,99500.13
2022-12-22T10:12:51.409Z,99500.97
2022-12-22T10:15:55.807Z,99496.38
2022-12-22T10:19:07.816Z,99492.84
2022-12-22T10:22:30.900Z,99490.94
2022-12-22T10:26:25.864Z,99485.41
2022-12-22T10:29:06.851Z,99482.13
2022-12-22T10:32:15.213Z,99468.13
2022-12-22T10:35:19.613Z,99468.72
2022-12-22T10:38:26.783Z,99462.44
2022-12-22T10:41:34.096Z,99465.91
2022-12-22T10:44:39.698Z,99458.69
2022-12-22T10:47:49.246Z,99451.88
2022-12-22T10:50:54.882Z,99448.91
2022-12-22T10:53:58.008Z,99452.19
2022-12-22T10:57:08.053Z,99442.44
2022-12-22T11:00:31.226Z,99444.06
2022-12-22T11:03:42.023Z,99453.84
2022-12-22T11:06:55.765Z,99440.53
2022-12-22T11:10:03.296Z,99431.81
2022-12-22T11:13:30.604Z,99428.41
2022-12-22T11:16:49.053Z,99428.31
2022-12-22T11:20:07.188Z,99422.03
2022-12-22T11:23:20.651Z,99415.81
2022-12-22T11:26:34.616Z,99414.59
2022-12-22T11:30:04.605Z,99407.72
2022-12-22T11:33:25.036Z,99408.47
2022-12-22T11:36:39.432Z,99411.72
2022-12-22T11:39:59.085Z,99407.97
2022-12-22T11:43:20.731Z,99398.41
2022-12-22T11:46:31.711Z,99398.97
2022-12-22T11:50:57.471Z,99388.22
2022-12-22T11:54:11.568Z,99391.63
2022-12-22T11:57:29.465Z,99388.94
2022-12-22T12:01:12.218Z,99386.22
2022-12-22T12:04:24.665Z,99389.03
2022-12-22T12:07:31.141Z,99389.75
2022-12-22T12:10:42.933Z,99388.31
2022-12-22T12:13:56.102Z,99391.59
2022-12-22T12:17:03.629Z,99381.94
2022-12-22T12:20:42.360Z,99387.66
2022-12-22T12:24:09.978Z,99387.56
2022-12-22T12:27:30.350Z,99389.06
2022-12-22T12:30:44.635Z,99381.63
2022-12-22T12:33:52.572Z,99386.13
2022-12-22T12:37:03.474Z,99373.84
2022-12-22T12:40:30.054Z,99379.19
2022-12-22T12:43:33.583Z,99381.09
2022-12-22T12:47:03.205Z,99378.34
2022-12-22T12:50:34.992Z,99381.91
2022-12-22T12:54:23.261Z,99370.56
2022-12-22T12:57:46.834Z,99372.91
2022-12-22T13:00:55.480Z,99374.69
2022-12-22T13:04:05.959Z,99378.56
2022-12-22T13:07:12.890Z,99374.00
2022-12-22T13:10:31.727Z,99376.22
2022-12-22T13:13:52.442Z,99381.41
2022-12-22T13:17:41.729Z,99386.59
2022-12-22T13:20:46.752Z,99391.50
2022-12-22T13:24:24.656Z,99391.41
2022-12-22T13:27:24.309Z,99390.44
2022-12-22T13:30:31.459Z,99403.41
2022-12-22T13:33:40.495Z,99403.88
2022-12-22T13:36:45.106Z,99398.09
2022-12-22T13:40:15.397Z,99403.03
2022-12-22T13:43:20.840Z,99412.72
2022-12-22T13:46:24.279Z,99416.00
2022-12-22T13:49:59.201Z,99416.00
2022-12-22T13:52:53.808Z,99421.66
2022-12-22T13:55:58.526Z,99419.75
2022-12-22T13:59:03.089Z,99426.56
2022-12-22T14:02:19.887Z,99431.63
2022-12-22T14:05:33.053Z,99437.91
2022-12-22T14:09:00.331Z,99438.13
2022-12-22T14:12:14.577Z,99438.34
2022-12-22T14:15:21.045Z,99443.41
2022-12-22T14:18:27.535Z,99444.59
2022-12-22T14:21:30.681Z,99438.84
2022-12-22T14:24:42.042Z,99459.34
2022-12-22T14:27:48.835Z,99453.78
2022-12-22T14:30:54.865Z,99460.75
2022-12-22T14:34:05.253Z,99466.53
2022-12-22T14:37:11.514Z,99472.53
2022-12-22T14:40:33.428Z,99472.78
2022-12-22T14:43:36.573Z,99475.38
2022-12-22T14:46:39.731Z,99481.00
2022-12-22T14:49:49.053Z,99483.16
2022-12-22T14:52:54.840Z,99486.69
2022-12-22T14:55:59.600Z,99489.16
2022-12-22T14:59:12.710Z,99501.22
2022-12-22T15:02:25.411Z,99513.47
2022-12-22T15:05:32.967Z,99519.97
2022-12-22T15:08:40.688Z,99513.97
2022-12-22T15:11:47.802Z,99519.84
2022-12-22T15:14:50.817Z,99531.31
2022-12-22T15:17:54.972Z,99534.59
2022-12-22T15:20:58.978Z,99538.41
2022-12-22T15:24:02.133Z,99545.59
2022-12-22T15:27:06.503Z,99546.19
2022-12-22T15:30:11.320Z,99542.53
2022-12-22T15:33:17.895Z,99553.97
2022-12-22T15:36:20.918Z,99557.41
2022-12-22T15:39:24.621Z,99570.03
2022-12-22T15:42:29.037Z,99568.38
2022-12-22T15:45:32.133Z,99572.88
2022-12-22T15:48:37.290Z,99576.97
2022-12-22T15:51:40.369Z,99576.38
2022-12-22T15:54:43.697Z,99573.78
2022-12-22T15:57:48.610Z,99583.56
2022-12-22T16:00:51.969Z,99584.19
2022-12-22T16:03:55.932Z,99600.72
2022-12-22T16:07:00.509Z,99599.53
2022-12-22T16:10:09.673Z,99604.38
2022-12-22T16:13:17.314Z,99611.81
2022-12-22T16:16:20.564Z,99623.59
2022-12-22T16:19:30.711Z,99621.94
2022-12-22T16:22:37.313Z,99622.19
2022-12-22T16:25:43.811Z,99628.38
2022-12-22T16:28:48.289Z,99647.75
2022-12-22T16:31:51.498Z,99647.97
2022-12-22T16:34:55.783Z,99655.28
2022-12-22T16:38:01.033Z,99663.41
2022-12-22T16:41:04.278Z,99663.88
2022-12-22T16:47:36.366Z,99685.34
2022-12-22T16:50:39.578Z,99677.09
2022-12-22T16:53:42.622Z,99676.16
2022-12-22T16:56:46.997Z,99680.75
2022-12-22T16:59:51.347Z,99678.28
2022-12-22T17:02:59.615Z,99682.03
2022-12-22T17:06:05.089Z,99692.03
2022-12-22T17:09:15.937Z,99686.38
2022-12-22T17:12:22.443Z,99707.34
2022-12-22T17:15:26.751Z,99705.09
2022-12-22T17:18:31.993Z,99707.69
2022-12-22T17:21:35.023Z,99716.03
2022-12-22T17:24:38.700Z,99715.19
2022-12-22T17:27:42.129Z,99715.69
2022-12-22T17:30:47.613Z,99713.09
2022-12-22T17:33:53.796Z,99715.44
2022-12-22T17:36:58.901Z,99726.50
2022-12-22T17:40:03.038Z,99724.38
2022-12-22T17:43:10.661Z,99728.97
2022-12-22T17:46:17.730Z,99725.56
2022-12-22T17:49:22.416Z,99719.72
2022-12-22T17:52:28.272Z,99735.59
2022-12-22T17:56:07.733Z,99737.38
2022-12-22T17:59:02.994Z,99731.03
2022-12-22T18:02:09.982Z,99739.00
2022-12-22T18:05:14.792Z,99739.75
2022-12-22T18:08:22.433Z,99737.97
2022-12-22T18:11:26.189Z,99736.31
2022-12-22T18:14:29.351Z,99742.34
2022-12-22T18:17:36.369Z,99741.47
2022-12-22T18:20:40.157Z,99754.81
2022-12-22T18:23:49.887Z,99755.03
2022-12-22T18:26:54.832Z,99753.59
2022-12-22T18:29:59.735Z,99757.34
2022-12-22T18:33:07.069Z,99754.38
2022-12-22T18:36:19.390Z,99769.81
2022-12-22T18:39:33.368Z,99755.91
2022-12-22T18:42:37.696Z,99766.72
2022-12-22T18:45:45.210Z,99763.41
2022-12-22T18:48:52.256Z,99768.72
2022-12-22T18:51:55.277Z,99772.56
2022-12-22T18:55:03.690Z,99777.25
2022-12-22T18:58:28.609Z,99770.31
2022-12-22T19:01:40.224Z,99767.06
2022-12-22T19:04:52.875Z,99771.63
2022-12-22T19:08:18.517Z,99770.19
2022-12-22T19:11:49.153Z,99770.81
2022-12-22T19:15:04.697Z,99774.47
2022-12-22T19:18:26.239Z,99781.03
2022-12-22T19:21:36.920Z,99765.88
2022-12-22T19:24:41.563Z,99767.16
2022-12-22T19:27:45.995Z,99779.16
2022-12-22T19:30:49.749Z,99773.78
2022-12-22T19:33:54.101Z,99765.25
2022-12-22T19:36:59.139Z,99775.03
2022-12-22T19:40:02.328Z,99776.28
2022-12-22T19:43:06.481Z,99775.34
2022-12-22T19:46:10.747Z,99779.19
2022-12-22T19:49:17.468Z,99775.78
2022-12-22T19:52:22.014Z,99781.06
2022-12-22T19:55:29.046Z,99774.75
2022-12-22T19:58:38.579Z,99772.75
2022-12-22T20:01:42.003Z,99768.25
2022-12-22T20:04:45.387Z,99759.16
2022-12-22T20:07:50.264Z,99761.09
2022-12-22T20:10:58.431Z,99771.25
2022-12-22T20:14:02.577Z,99765.69
2022-12-22T20:17:05.751Z,99764.97
2022-12-22T20:20:16.373Z,99762.97
2022-12-22T20:23:23.577Z,99774.25
2022-12-22T20:26:28.764Z,99773.56
2022-12-22T20:29:31.911Z,99775.31
2022-12-22T20:32:35.168Z,99783.56
2022-12-22T20:35:39.707Z,99782.25
2022-12-22T20:38:45.787Z,99788.13
2022-12-22T20:41:53.547Z,99787.59
2022-12-22T20:45:04.095Z,99777.69
2022-12-22T20:48:07.780Z,99786.28
2022-12-22T20:51:15.219Z,99791.22
2022-12-22T20:54:19.624Z,99782.66
2022-12-22T20:57:24.064Z,99774.16
2022-12-22T21:00:29.341Z,99783.56
2022-12-22T21:03:32.377Z,99783.78
2022-12-22T21:06:39.092Z,99783.97
2022-12-22T21:09:44.026Z,99789.69
2022-12-22T21:12:47.351Z,99791.66
2022-12-22T21:15:55.880Z,99785.22
2022-12-22T21:18:59.672Z,99781.69
2022-12-22T21:22:03.116Z,99787.81
2022-12-22T21:25:09.531Z,99791.22
2022-12-22T21:28:22.552Z,99791.84
2022-12-22T21:31:25.792Z,99789.16
2022-12-22T21:34:29.354Z,99782.63
2022-12-22T21:37:35.767Z,99786.56
2022-12-22T21:40:40.638Z,99778.81
2022-12-22T21:43:44.067Z,99779.00
2022-12-22T21:46:48.323Z,99782.53
2022-12-22T21:49:51.867Z,99786.56
2022-12-22T21:52:55.158Z,99785.28
2022-12-22T21:55:59.547Z,99786.56
2022-12-22T21:59:15.690Z,99783.16
2022-12-22T22:02:20.514Z,99785.00
2022-12-22T22:05:28.849Z,99787.47
2022-12-22T22:08:32.390Z,99780.34
2022-12-22T22:11:57.866Z,99777.50
2022-12-22T22:15:02.184Z,99771.69
2022-12-22T22:18:07.696Z,99773.03
2022-12-22T22:21:14.999Z,99766.75
2022-12-22T22:24:18.506Z,99762.28
2022-12-22T22:27:23.094Z,99771.09
2022-12-22T22:30:28.217Z,99763.41
2022-12-22T22:33:31.652Z,99770.44
2022-12-22T22:36:35.129Z,99772.09
2022-12-22T22:39:38.494Z,99770.44
2022-12-22T22:42:43.547Z,99776.66
2022-12-22T22:45:47.931Z,99766.34
2022-12-22T22:48:51.554Z,99761.06
2022-12-22T22:51:57.648Z,99759.59
2022-12-22T22:55:01.185Z,99758.88
2022-12-22T22:58:06.378Z,99763.81
2022-12-22T23:01:12.385Z,99757.50
2022-12-22T23:04:16.004Z,99750.59
2022-12-22T23:07:19.548Z,99753.34
2022-12-22T23:10:23.254Z,99742.84
2022-12-22T23:13:28.814Z,99737.78
2022-12-22T23:16:37.716Z,99729.81
2022-12-22T23:19:42.000Z,99730.34
2022-12-22T23:22:45.735Z,99722.50
2022-12-22T23:25:51.849Z,99724.06
2022-12-22T23:29:02.692Z,99728.81
2022-12-22T23:32:08.013Z,99714.25
2022-12-22T23:35:11.764Z,99712.28
2022-12-22T23:38:17.246Z,99708.97
2022-12-22T23:41:21.376Z,99707.00
2022-12-22T23:44:26.746Z,99704.34
2022-12-22T23:47:30.879Z,99700.59
2022-12-22T23:50:34.406Z,99701.63
2022-12-22T23:53:39.669Z,99694.38
2022-12-22T23:56:43.354Z,99689.75
2022-12-22T23:59:51.419Z,99684.69
